createdAt,value
2017-07-12T00:00:33.856Z,81.40
2017-07-12T00:03:00.476Z,82.50
2017-07-12T00:05:26.764Z,82.50
2017-07-12T00:07:52.998Z,82.40
2017-07-12T00:10:19.271Z,82.60
2017-07-12T00:12:45.534Z,83.50
2017-07-12T00:15:11.822Z,83.50
2017-07-12T00:17:38.098Z,83.40
2017-07-12T00:20:04.371Z,83.30
2017-07-12T00:22:30.618Z,83.40
2017-07-12T00:24:57.133Z,83.10
2017-07-12T00:27:23.426Z,82.80
2017-07-12T00:29:49.659Z,82.90
2017-07-12T00:32:15.901Z,83.30
2017-07-12T00:34:42.199Z,83.20
2017-07-12T00:37:08.456Z,83.20
2017-07-12T00:39:34.726Z,82.80
2017-07-12T00:42:01.018Z,82.40
2017-07-12T00:44:27.286Z,82.90
2017-07-12T00:46:53.595Z,82.10
2017-07-12T00:49:19.901Z,82.40
2017-07-12T00:51:46.157Z,82.60
2017-07-12T00:54:12.426Z,83.10
2017-07-12T00:56:38.757Z,82.80
2017-07-12T00:59:05.029Z,82.20
2017-07-12T01:01:31.329Z,82.60
2017-07-12T01:03:57.603Z,82.40
2017-07-12T01:06:23.909Z,82.90
2017-07-12T01:08:50.178Z,82.80
2017-07-12T01:11:16.500Z,82.20
2017-07-12T01:13:42.782Z,82.80
2017-07-12T01:16:09.074Z,82.80
2017-07-12T01:18:35.336Z,82.80
2017-07-12T01:21:01.618Z,82.60
2017-07-12T01:23:27.863Z,83.00
2017-07-12T01:25:54.517Z,82.70
2017-07-12T01:28:20.807Z,82.70
2017-07-12T01:30:47.129Z,82.70
2017-07-12T01:33:13.422Z,83.40
2017-07-12T01:35:39.988Z,83.00
2017-07-12T01:38:06.265Z,83.50
2017-07-12T01:40:32.558Z,83.70
2017-07-12T01:42:58.847Z,83.60
2017-07-12T01:45:25.160Z,83.50
2017-07-12T01:47:51.502Z,82.90
2017-07-12T01:50:17.837Z,83.30
2017-07-12T01:52:44.131Z,84.10
2017-07-12T01:55:10.400Z,83.90
2017-07-12T01:57:36.705Z,83.60
2017-07-12T02:00:03.002Z,83.60
2017-07-12T02:02:29.301Z,83.20
2017-07-12T02:04:55.570Z,83.00
2017-07-12T02:07:22.222Z,82.70
2017-07-12T02:09:48.887Z,83.30
2017-07-12T02:12:15.162Z,83.40
2017-07-12T02:14:41.458Z,83.50
2017-07-12T02:17:07.767Z,82.90
2017-07-12T02:19:34.956Z,83.30
2017-07-12T02:22:01.221Z,83.40
2017-07-12T02:24:27.873Z,82.30
2017-07-12T02:26:54.159Z,82.30
2017-07-12T02:29:20.426Z,82.50
2017-07-12T02:31:46.709Z,82.30
2017-07-12T02:34:12.988Z,82.40
2017-07-12T02:36:39.691Z,83.00
2017-07-12T02:39:05.977Z,83.00
2017-07-12T02:41:32.257Z,83.20
2017-07-12T02:43:58.580Z,83.10
2017-07-12T02:46:24.848Z,83.10
2017-07-12T02:48:51.164Z,83.50
2017-07-12T02:51:18.060Z,82.70
2017-07-12T02:53:44.341Z,82.80
2017-07-12T02:56:10.656Z,82.60
2017-07-12T02:58:36.921Z,82.40
2017-07-12T03:01:03.202Z,82.90
2017-07-12T03:03:29.482Z,82.90
2017-07-12T03:05:55.751Z,82.90
2017-07-12T03:08:22.047Z,83.10
2017-07-12T03:10:48.313Z,83.40
2017-07-12T03:13:14.590Z,83.90
2017-07-12T03:15:40.857Z,83.80
2017-07-12T03:18:07.118Z,83.60
2017-07-12T03:20:33.392Z,82.70
2017-07-12T03:22:59.680Z,82.90
2017-07-12T03:25:26.011Z,82.80
2017-07-12T03:27:52.668Z,83.10
2017-07-12T03:30:18.919Z,83.10
2017-07-12T03:32:45.593Z,83.60
2017-07-12T03:35:11.880Z,83.60
2017-07-12T03:37:38.210Z,83.20
2017-07-12T03:40:04.517Z,83.40
2017-07-12T03:42:30.841Z,83.60
2017-07-12T03:44:57.497Z,82.80
2017-07-12T03:47:24.178Z,84.00
2017-07-12T03:49:50.502Z,84.00
2017-07-12T03:52:17.283Z,84.20
2017-07-12T03:54:43.532Z,83.90
2017-07-12T03:57:09.838Z,84.50
2017-07-12T03:59:36.136Z,84.20
2017-07-12T04:02:02.451Z,83.70
2017-07-12T04:04:28.762Z,83.50
2017-07-12T04:06:55.032Z,82.70
2017-07-12T04:09:21.317Z,82.20
2017-07-12T04:11:47.591Z,83.40
2017-07-12T04:14:13.859Z,83.20
2017-07-12T04:16:40.124Z,82.40
2017-07-12T04:19:06.444Z,82.10
2017-07-12T04:21:32.723Z,81.80
2017-07-12T04:23:59.058Z,81.80
2017-07-12T04:26:25.342Z,81.30
2017-07-12T04:28:51.611Z,81.50
2017-07-12T04:31:17.914Z,81.80
2017-07-12T04:33:44.211Z,81.70
2017-07-12T04:36:10.574Z,81.20
2017-07-12T04:38:36.876Z,81.10
2017-07-12T04:41:03.173Z,81.00
2017-07-12T04:43:29.457Z,80.80
2017-07-12T04:45:55.742Z,80.70
2017-07-12T04:48:22.111Z,81.00
2017-07-12T04:50:48.405Z,80.80
2017-07-12T04:53:14.677Z,81.10
2017-07-12T04:55:40.937Z,82.00
2017-07-12T04:58:07.493Z,81.40
2017-07-12T05:00:33.760Z,82.10
2017-07-12T05:03:00.015Z,82.10
2017-07-12T05:05:26.334Z,82.20
2017-07-12T05:07:52.608Z,82.00
2017-07-12T05:10:18.900Z,82.40
2017-07-12T05:12:45.181Z,83.70
2017-07-12T05:15:11.493Z,83.10
2017-07-12T05:17:37.778Z,83.70
2017-07-12T05:20:04.054Z,83.10
2017-07-12T05:22:30.708Z,81.40
2017-07-12T05:24:57.366Z,80.40
2017-07-12T05:27:23.668Z,80.40
2017-07-12T05:29:50.180Z,81.30
2017-07-12T05:32:16.489Z,81.10
2017-07-12T05:34:42.803Z,78.90
2017-07-12T05:37:09.088Z,79.70
2017-07-12T05:39:35.457Z,78.50
2017-07-12T05:42:01.755Z,78.80
2017-07-12T05:44:28.491Z,79.50
2017-07-12T05:46:54.783Z,79.50
2017-07-12T05:49:21.084Z,80.40
2017-07-12T05:51:47.370Z,80.10
2017-07-12T05:54:13.699Z,80.60
2017-07-12T05:56:40.003Z,81.10
2017-07-12T05:59:07.050Z,82.00
2017-07-12T06:01:33.334Z,82.10
2017-07-12T06:03:59.600Z,81.20
2017-07-12T06:06:25.869Z,81.90
2017-07-12T06:08:52.151Z,82.40
2017-07-12T06:11:18.463Z,81.20
2017-07-12T06:13:44.769Z,81.70
2017-07-12T06:16:11.438Z,82.20
2017-07-12T06:18:37.728Z,82.30
2017-07-12T06:21:04.025Z,81.80
2017-07-12T06:23:30.304Z,80.00
2017-07-12T06:25:56.600Z,80.10
2017-07-12T06:28:22.869Z,79.30
2017-07-12T06:30:49.231Z,79.40
2017-07-12T06:33:15.497Z,79.80
2017-07-12T06:35:42.053Z,80.70
2017-07-12T06:38:08.741Z,80.00
2017-07-12T06:40:35.034Z,80.00
2017-07-12T06:43:01.328Z,79.50
2017-07-12T06:45:27.632Z,79.60
2017-07-12T06:47:53.939Z,78.40
2017-07-12T06:50:20.232Z,78.20
2017-07-12T06:52:46.898Z,77.10
2017-07-12T06:55:13.192Z,77.10
2017-07-12T06:57:39.489Z,78.20
2017-07-12T07:00:05.775Z,78.70
2017-07-12T07:02:32.023Z,78.50
2017-07-12T07:04:58.308Z,76.80
2017-07-12T07:07:24.586Z,77.50
2017-07-12T07:09:50.881Z,78.20
2017-07-12T07:12:17.189Z,78.30
2017-07-12T07:14:43.517Z,79.10
2017-07-12T07:17:09.898Z,78.40
2017-07-12T07:19:36.270Z,77.80
2017-07-12T07:22:02.626Z,77.00
2017-07-12T07:24:29.287Z,78.60
2017-07-12T07:26:55.604Z,78.70
2017-07-12T07:29:21.860Z,77.40
2017-07-12T07:31:48.377Z,77.00
2017-07-12T07:34:14.680Z,76.40
2017-07-12T07:36:40.985Z,75.50
2017-07-12T07:39:07.407Z,74.70
2017-07-12T07:41:33.793Z,75.10
2017-07-12T07:44:00.381Z,73.80
2017-07-12T07:46:27.179Z,74.40
2017-07-12T07:48:53.468Z,74.30
2017-07-12T07:51:19.799Z,74.00
2017-07-12T07:53:46.329Z,75.10
2017-07-12T07:56:12.979Z,76.20
2017-07-12T07:58:39.337Z,75.20
2017-07-12T08:01:05.597Z,73.40
2017-07-12T08:03:31.883Z,72.90
2017-07-12T08:05:59.286Z,73.10
